Time;durP1;ratioP1;P1;durP2;ratioP2;P2;SDS_P1;SDS_P2;PMS_P1;PMS_P2;Temp;Humidity;BMP_temperature;BMP_pressure;BME280_temperature;BME280_humidity;BME280_pressure;Samples;Min_cycle;Max_cycle;Signal;HPM_P1;HPM_P2
2024/01/06 00:00:45;;;;;;;17.15;14.35;;;;;;;8.61;76.00488;93984.2;;;;
2024/01/06 00:01:46;;;;;;;17.15;14.35;;;;;;;8.61;76.00488;93984.2;;;;
2024/01/06 00:02:46;;;;;;;17.15;14.35;;;;;;;8.61;76.00488;93984.2;;;;
2024/01/06 00:03:46;;;;;;;17.15;14.35;;;;;;;8.61;76.00488;93984.2;;;;
2024/01/06 00:04:47;;;;;;;17.15;14.35;;;;;;;8.61;76.00488;93984.2;;;;
2024/01/06 00:05:47;;;;;;;17.15;14.35;;;;;;;8.61;76.00488;93984.2;;;;
2024/01/06 00:06:48;;;;;;;17.15;14.35;;;;;;;8.61;76.00488;93984.2;;;;
2024/01/06 00:07:49;;;;;;;18.25;14.85;;;;;;;9.12;74.01367;93987.76;;;;
2024/01/06 00:08:53;;;;;;;18.25;14.85;;;;;;;9.12;74.01367;93987.76;;;;
2024/01/06 00:09:54;;;;;;;18.25;14.85;;;;;;;9.12;74.01367;93987.76;;;;
2024/01/06 00:10:55;;;;;;;18.25;14.85;;;;;;;9.12;74.01367;93987.76;;;;
2024/01/06 00:11:55;;;;;;;18.25;14.85;;;;;;;9.12;74.01367;93987.76;;;;
2024/01/06 00:12:57;;;;;;;18.25;14.85;;;;;;;9.12;74.01367;93987.76;;;;
2024/01/06 00:13:57;;;;;;;18.25;14.85;;;;;;;9.12;74.01367;93987.76;;;;
2024/01/06 00:14:58;;;;;;;18.25;14.85;;;;;;;9.12;74.01367;93987.76;;;;
2024/01/06 00:15:59;;;;;;;18.25;14.85;;;;;;;9.12;74.01367;93987.76;;;;
2024/01/06 00:17:00;;;;;;;18.25;14.85;;;;;;;9.12;74.01367;93987.76;;;;
2024/01/06 00:18:01;;;;;;;18.25;14.85;;;;;;;9.12;74.01367;93987.76;;;;
2024/01/06 00:19:02;;;;;;;18.2;15.75;;;;;;;9.08;74.1377;93978.2;;;;
2024/01/06 00:20:02;;;;;;;18.2;15.75;;;;;;;9.08;74.1377;93978.2;;;;
2024/01/06 00:21:04;;;;;;;18.2;15.75;;;;;;;9.08;74.1377;93978.2;;;;
2024/01/06 00:22:05;;;;;;;18.2;15.75;;;;;;;9.08;74.1377;93978.2;;;;
2024/01/06 00:23:05;;;;;;;18.2;15.75;;;;;;;9.08;74.1377;93978.2;;;;
2024/01/06 00:24:06;;;;;;;18.2;15.75;;;;;;;9.08;74.1377;93978.2;;;;
2024/01/06 00:25:06;;;;;;;18.2;15.75;;;;;;;9.08;74.1377;93978.2;;;;
2024/01/06 00:26:08;;;;;;;18.2;15.75;;;;;;;9.08;74.1377;93978.2;;;;
2024/01/06 00:27:09;;;;;;;18.2;15.75;;;;;;;9.08;74.1377;93978.2;;;;
2024/01/06 00:28:10;;;;;;;18.2;15.75;;;;;;;9.08;74.1377;93978.2;;;;
2024/01/06 00:29:10;;;;;;;19.65;16;;;;;;;8.6;76.29395;93974.2;;;;
2024/01/06 00:30:11;;;;;;;19.65;16;;;;;;;8.6;76.29395;93974.2;;;;
2024/01/06 00:31:12;;;;;;;19.65;16;;;;;;;8.6;76.29395;93974.2;;;;
2024/01/06 00:32:13;;;;;;;19.65;16;;;;;;;8.6;76.29395;93974.2;;;;
2024/01/06 00:33:13;;;;;;;19.65;16;;;;;;;8.6;76.29395;93974.2;;;;
2024/01/06 00:34:14;;;;;;;19.65;16;;;;;;;8.6;76.29395;93974.2;;;;
2024/01/06 00:35:14;;;;;;;19.65;16;;;;;;;8.6;76.29395;93974.2;;;;
2024/01/06 00:36:15;;;;;;;19.65;16;;;;;;;8.6;76.29395;93974.2;;;;
2024/01/06 00:37:16;;;;;;;19.65;16;;;;;;;8.6;76.29395;93974.2;;;;
2024/01/06 00:38:16;;;;;;;19.65;16;;;;;;;8.6;76.29395;93974.2;;;;
2024/01/06 00:39:18;;;;;;;19.65;16;;;;;;;8.6;76.29395;93974.2;;;;
2024/01/06 00:40:20;;;;;;;19.85;15.75;;;;;;;8.57;76.53223;93978.73;;;;
2024/01/06 00:41:20;;;;;;;19.85;15.75;;;;;;;8.57;76.53223;93978.73;;;;
2024/01/06 00:42:21;;;;;;;19.85;15.75;;;;;;;8.57;76.53223;93978.73;;;;
2024/01/06 00:43:21;;;;;;;19.85;15.75;;;;;;;8.57;76.53223;93978.73;;;;
2024/01/06 00:44:22;;;;;;;19.85;15.75;;;;;;;8.57;76.53223;93978.73;;;;
2024/01/06 00:45:22;;;;;;;19.85;15.75;;;;;;;8.57;76.53223;93978.73;;;;
2024/01/06 00:46:23;;;;;;;19.85;15.75;;;;;;;8.57;76.53223;93978.73;;;;
2024/01/06 00:47:24;;;;;;;19.85;15.75;;;;;;;8.57;76.53223;93978.73;;;;
2024/01/06 00:48:24;;;;;;;19.85;15.75;;;;;;;8.57;76.53223;93978.73;;;;
2024/01/06 00:49:25;;;;;;;19.85;15.75;;;;;;;8.57;76.53223;93978.73;;;;
2024/01/06 00:50:25;;;;;;;19.85;15.75;;;;;;;8.57;76.53223;93978.73;;;;
2024/01/06 00:51:26;;;;;;;19.85;15.75;;;;;;;8.57;76.53223;93978.73;;;;
2024/01/06 00:52:27;;;;;;;19.85;15.75;;;;;;;8.57;76.53223;93978.73;;;;
2024/01/06 00:53:28;;;;;;;19.85;15.75;;;;;;;8.57;76.53223;93978.73;;;;
2024/01/06 00:54:29;;;;;;;19.85;15.75;;;;;;;8.57;76.53223;93978.73;;;;
2024/01/06 00:55:29;;;;;;;19.85;15.75;;;;;;;8.57;76.53223;93978.73;;;;
2024/01/06 00:56:30;;;;;;;19.85;15.75;;;;;;;8.57;76.53223;93978.73;;;;
2024/01/06 00:57:30;;;;;;;19.85;15.75;;;;;;;8.57;76.53223;93978.73;;;;
2024/01/06 00:58:30;;;;;;;19.85;15.75;;;;;;;8.57;76.53223;93978.73;;;;
2024/01/06 00:59:31;;;;;;;19.85;15.75;;;;;;;8.57;76.53223;93978.73;;;;
2024/01/06 01:00:31;;;;;;;19.85;15.75;;;;;;;8.57;76.53223;93978.73;;;;
2024/01/06 01:01:32;;;;;;;22.3;15.45;;;;;;;8.49;76.43359;93964.5;;;;
2024/01/06 01:02:32;;;;;;;22.3;15.45;;;;;;;8.49;76.43359;93964.5;;;;
2024/01/06 01:03:33;;;;;;;22.3;15.45;;;;;;;8.49;76.43359;93964.5;;;;
2024/01/06 01:04:33;;;;;;;22.3;15.45;;;;;;;8.49;76.43359;93964.5;;;;
2024/01/06 01:05:34;;;;;;;22.3;15.45;;;;;;;8.49;76.43359;93964.5;;;;
2024/01/06 01:06:34;;;;;;;22.3;15.45;;;;;;;8.49;76.43359;93964.5;;;;
2024/01/06 01:07:37;;;;;;;22.3;15.45;;;;;;;8.49;76.43359;93964.5;;;;
2024/01/06 01:08:37;;;;;;;22.3;15.45;;;;;;;8.49;76.43359;93964.5;;;;
2024/01/06 01:09:38;;;;;;;22.3;15.45;;;;;;;8.49;76.43359;93964.5;;;;
2024/01/06 01:10:38;;;;;;;22.3;15.45;;;;;;;8.49;76.43359;93964.5;;;;
2024/01/06 01:11:39;;;;;;;22.3;15.45;;;;;;;8.49;76.43359;93964.5;;;;
2024/01/06 01:12:39;;;;;;;22.3;15.45;;;;;;;8.49;76.43359;93964.5;;;;
2024/01/06 01:13:40;;;;;;;22.3;15.45;;;;;;;8.49;76.43359;93964.5;;;;
2024/01/06 01:14:40;;;;;;;22.3;15.45;;;;;;;8.49;76.43359;93964.5;;;;
2024/01/06 01:15:41;;;;;;;22.3;15.45;;;;;;;8.49;76.43359;93964.5;;;;
2024/01/06 01:16:41;;;;;;;22.3;15.45;;;;;;;8.49;76.43359;93964.5;;;;
2024/01/06 01:17:42;;;;;;;22.3;15.45;;;;;;;8.49;76.43359;93964.5;;;;
2024/01/06 01:18:44;;;;;;;22.3;15.45;;;;;;;8.49;76.43359;93964.5;;;;
2024/01/06 01:19:44;;;;;;;22.3;15.45;;;;;;;8.49;76.43359;93964.5;;;;
2024/01/06 01:20:45;;;;;;;22.3;15.45;;;;;;;8.49;76.43359;93964.5;;;;
2024/01/06 01:21:45;;;;;;;22.3;15.45;;;;;;;8.49;76.43359;93964.5;;;;
2024/01/06 01:22:46;;;;;;;20.2;14.3;;;;;;;8.59;75.89355;93971.41;;;;
2024/01/06 01:23:47;;;;;;;20.2;14.3;;;;;;;8.59;75.89355;93971.41;;;;
2024/01/06 01:24:47;;;;;;;20.2;14.3;;;;;;;8.59;75.89355;93971.41;;;;
2024/01/06 01:25:48;;;;;;;20.2;14.3;;;;;;;8.59;75.89355;93971.41;;;;
2024/01/06 01:26:48;;;;;;;20.2;14.3;;;;;;;8.59;75.89355;93971.41;;;;
2024/01/06 01:27:49;;;;;;;20.2;14.3;;;;;;;8.59;75.89355;93971.41;;;;
2024/01/06 01:28:49;;;;;;;20.2;14.3;;;;;;;8.59;75.89355;93971.41;;;;
2024/01/06 01:29:52;;;;;;;20.2;14.3;;;;;;;8.59;75.89355;93971.41;;;;
2024/01/06 01:30:53;;;;;;;20.2;14.3;;;;;;;8.59;75.89355;93971.41;;;;
2024/01/06 01:31:53;;;;;;;20.2;14.3;;;;;;;8.59;75.89355;93971.41;;;;
2024/01/06 01:32:54;;;;;;;20.2;14.3;;;;;;;8.59;75.89355;93971.41;;;;
2024/01/06 01:33:54;;;;;;;22.25;15.05;;;;;;;8.56;76.07227;93980.55;;;;
2024/01/06 01:34:55;;;;;;;22.25;15.05;;;;;;;8.56;76.07227;93980.55;;;;
2024/01/06 01:35:55;;;;;;;22.25;15.05;;;;;;;8.56;76.07227;93980.55;;;;
2024/01/06 01:36:56;;;;;;;22.25;15.05;;;;;;;8.56;76.07227;93980.55;;;;
2024/01/06 01:37:56;;;;;;;22.25;15.05;;;;;;;8.56;76.07227;93980.55;;;;
2024/01/06 01:38:57;;;;;;;22.25;15.05;;;;;;;8.56;76.07227;93980.55;;;;
2024/01/06 01:39:57;;;;;;;22.25;15.05;;;;;;;8.56;76.07227;93980.55;;;;
2024/01/06 01:40:59;;;;;;;22.25;15.05;;;;;;;8.56;76.07227;93980.55;;;;
2024/01/06 01:41:59;;;;;;;22.25;15.05;;;;;;;8.56;76.07227;93980.55;;;;
2024/01/06 01:43:00;;;;;;;22.25;15.05;;;;;;;8.56;76.07227;93980.55;;;;
2024/01/06 01:44:00;;;;;;;22.25;15.05;;;;;;;8.56;76.07227;93980.55;;;;
2024/01/06 01:45:01;;;;;;;19.7;14.65;;;;;;;8.61;75.99414;93990.79;;;;
2024/01/06 01:46:02;;;;;;;19.7;14.65;;;;;;;8.61;75.99414;93990.79;;;;
2024/01/06 01:47:02;;;;;;;19.7;14.65;;;;;;;8.61;75.99414;93990.79;;;;
2024/01/06 01:48:05;;;;;;;19.7;14.65;;;;;;;8.61;75.99414;93990.79;;;;
2024/01/06 01:49:06;;;;;;;19.7;14.65;;;;;;;8.61;75.99414;93990.79;;;;
2024/01/06 01:50:07;;;;;;;19.7;14.65;;;;;;;8.61;75.99414;93990.79;;;;
2024/01/06 01:51:08;;;;;;;19.7;14.65;;;;;;;8.61;75.99414;93990.79;;;;
2024/01/06 01:52:09;;;;;;;19.7;14.65;;;;;;;8.61;75.99414;93990.79;;;;
2024/01/06 01:53:10;;;;;;;19.7;14.65;;;;;;;8.61;75.99414;93990.79;;;;
2024/01/06 01:54:10;;;;;;;19.7;14.65;;;;;;;8.61;75.99414;93990.79;;;;
2024/01/06 01:55:11;;;;;;;19.6;13.7;;;;;;;9.01;74.0498;93987.69;;;;
2024/01/06 01:56:12;;;;;;;19.6;13.7;;;;;;;9.01;74.0498;93987.69;;;;
2024/01/06 01:57:13;;;;;;;19.6;13.7;;;;;;;9.01;74.0498;93987.69;;;;
2024/01/06 01:58:16;;;;;;;19.6;13.7;;;;;;;9.01;74.0498;93987.69;;;;
2024/01/06 01:59:17;;;;;;;19.6;13.7;;;;;;;9.01;74.0498;93987.69;;;;
2024/01/06 02:00:18;;;;;;;19.6;13.7;;;;;;;9.01;74.0498;93987.69;;;;
2024/01/06 02:01:20;;;;;;;19.6;13.7;;;;;;;9.01;74.0498;93987.69;;;;
2024/01/06 02:02:20;;;;;;;19.6;13.7;;;;;;;9.01;74.0498;93987.69;;;;
2024/01/06 02:03:21;;;;;;;19.6;13.7;;;;;;;9.01;74.0498;93987.69;;;;
2024/01/06 02:04:24;;;;;;;19.6;13.7;;;;;;;9.01;74.0498;93987.69;;;;
2024/01/06 02:05:24;;;;;;;19.6;13.7;;;;;;;9.01;74.0498;93987.69;;;;
2024/01/06 02:06:25;;;;;;;16.85;12.45;;;;;;;9.04;73.95801;93995.12;;;;
2024/01/06 02:07:25;;;;;;;16.85;12.45;;;;;;;9.04;73.95801;93995.12;;;;
2024/01/06 02:08:26;;;;;;;16.85;12.45;;;;;;;9.04;73.95801;93995.12;;;;
2024/01/06 02:09:29;;;;;;;16.85;12.45;;;;;;;9.04;73.95801;93995.12;;;;
2024/01/06 02:10:29;;;;;;;16.85;12.45;;;;;;;9.04;73.95801;93995.12;;;;
2024/01/06 02:11:30;;;;;;;16.85;12.45;;;;;;;9.04;73.95801;93995.12;;;;
2024/01/06 02:12:30;;;;;;;16.85;12.45;;;;;;;9.04;73.95801;93995.12;;;;
2024/01/06 02:13:31;;;;;;;16.85;12.45;;;;;;;9.04;73.95801;93995.12;;;;
2024/01/06 02:14:33;;;;;;;16.85;12.45;;;;;;;9.04;73.95801;93995.12;;;;
2024/01/06 02:15:34;;;;;;;16.85;12.45;;;;;;;9.04;73.95801;93995.12;;;;
2024/01/06 02:16:35;;;;;;;16.85;12.45;;;;;;;9.04;73.95801;93995.12;;;;
2024/01/06 02:17:35;;;;;;;16.85;12.45;;;;;;;9.04;73.95801;93995.12;;;;
2024/01/06 02:18:36;;;;;;;16.85;12.45;;;;;;;9.04;73.95801;93995.12;;;;
2024/01/06 02:19:36;;;;;;;16.85;12.45;;;;;;;9.04;73.95801;93995.12;;;;
2024/01/06 02:20:37;;;;;;;16.85;12.45;;;;;;;9.04;73.95801;93995.12;;;;
2024/01/06 02:21:43;;;;;;;16.85;12.45;;;;;;;9.04;73.95801;93995.12;;;;
2024/01/06 02:22:44;;;;;;;16.85;12.45;;;;;;;9.04;73.95801;93995.12;;;;
2024/01/06 02:23:45;;;;;;;16.85;12.45;;;;;;;9.04;73.95801;93995.12;;;;
2024/01/06 02:24:46;;;;;;;16.85;12.45;;;;;;;9.04;73.95801;93995.12;;;;
2024/01/06 02:25:46;;;;;;;16.85;12.45;;;;;;;9.04;73.95801;93995.12;;;;
2024/01/06 02:26:47;;;;;;;16.85;12.45;;;;;;;9.04;73.95801;93995.12;;;;
2024/01/06 02:27:47;;;;;;;7.450001;6.600001;;;;;;;8.39;76.4707;93997.6;;;;
2024/01/06 02:28:49;;;;;;;7.450001;6.600001;;;;;;;8.39;76.4707;93997.6;;;;
2024/01/06 02:29:49;;;;;;;7.450001;6.600001;;;;;;;8.39;76.4707;93997.6;;;;
2024/01/06 02:30:50;;;;;;;7.450001;6.600001;;;;;;;8.39;76.4707;93997.6;;;;
2024/01/06 02:31:51;;;;;;;7.450001;6.600001;;;;;;;8.39;76.4707;93997.6;;;;
2024/01/06 02:32:51;;;;;;;7.450001;6.600001;;;;;;;8.39;76.4707;93997.6;;;;
2024/01/06 02:33:52;;;;;;;7.450001;6.600001;;;;;;;8.39;76.4707;93997.6;;;;
2024/01/06 02:34:52;;;;;;;7.450001;6.600001;;;;;;;8.39;76.4707;93997.6;;;;
2024/01/06 02:35:53;;;;;;;7.450001;6.600001;;;;;;;8.39;76.4707;93997.6;;;;
2024/01/06 02:36:53;;;;;;;7.450001;6.600001;;;;;;;8.39;76.4707;93997.6;;;;
2024/01/06 02:37:54;;;;;;;8.200001;6;;;;;;;8.41;76.35645;94004.35;;;;
2024/01/06 02:38:54;;;;;;;8.200001;6;;;;;;;8.41;76.35645;94004.35;;;;
2024/01/06 02:39:55;;;;;;;8.200001;6;;;;;;;8.41;76.35645;94004.35;;;;
2024/01/06 02:40:55;;;;;;;8.200001;6;;;;;;;8.41;76.35645;94004.35;;;;
2024/01/06 02:41:56;;;;;;;8.200001;6;;;;;;;8.41;76.35645;94004.35;;;;
2024/01/06 02:42:56;;;;;;;8.200001;6;;;;;;;8.41;76.35645;94004.35;;;;
2024/01/06 02:43:57;;;;;;;8.200001;6;;;;;;;8.41;76.35645;94004.35;;;;
2024/01/06 02:44:57;;;;;;;8.200001;6;;;;;;;8.41;76.35645;94004.35;;;;
2024/01/06 02:45:58;;;;;;;8.200001;6;;;;;;;8.41;76.35645;94004.35;;;;
2024/01/06 02:46:58;;;;;;;8.200001;6;;;;;;;8.41;76.35645;94004.35;;;;
2024/01/06 02:47:58;;;;;;;8.200001;6;;;;;;;8.41;76.35645;94004.35;;;;
2024/01/06 02:48:59;;;;;;;6.299999;5.700001;;;;;;;8.4;76.28906;94007.59;;;;
2024/01/06 02:49:59;;;;;;;6.299999;5.700001;;;;;;;8.4;76.28906;94007.59;;;;
2024/01/06 02:51:00;;;;;;;6.299999;5.700001;;;;;;;8.4;76.28906;94007.59;;;;
2024/01/06 02:52:00;;;;;;;6.299999;5.700001;;;;;;;8.4;76.28906;94007.59;;;;
2024/01/06 02:53:01;;;;;;;6.299999;5.700001;;;;;;;8.4;76.28906;94007.59;;;;
2024/01/06 02:54:01;;;;;;;6.299999;5.700001;;;;;;;8.4;76.28906;94007.59;;;;
2024/01/06 02:55:02;;;;;;;6.299999;5.700001;;;;;;;8.4;76.28906;94007.59;;;;
2024/01/06 02:56:03;;;;;;;6.299999;5.700001;;;;;;;8.4;76.28906;94007.59;;;;
2024/01/06 02:57:09;;;;;;;6.299999;5.700001;;;;;;;8.4;76.28906;94007.59;;;;
2024/01/06 02:58:09;;;;;;;6.299999;5.700001;;;;;;;8.4;76.28906;94007.59;;;;
2024/01/06 02:59:10;;;;;;;6.299999;5.700001;;;;;;;8.4;76.28906;94007.59;;;;
2024/01/06 03:00:11;;;;;;;5.25;4.75;;;;;;;8.33;76.26758;94019.55;;;;
2024/01/06 03:01:13;;;;;;;5.25;4.75;;;;;;;8.33;76.26758;94019.55;;;;
2024/01/06 03:02:13;;;;;;;5.25;4.75;;;;;;;8.33;76.26758;94019.55;;;;
2024/01/06 03:03:14;;;;;;;5.25;4.75;;;;;;;8.33;76.26758;94019.55;;;;
2024/01/06 03:04:14;;;;;;;5.25;4.75;;;;;;;8.33;76.26758;94019.55;;;;
2024/01/06 03:05:15;;;;;;;5.25;4.75;;;;;;;8.33;76.26758;94019.55;;;;
2024/01/06 03:06:16;;;;;;;5.25;4.75;;;;;;;8.33;76.26758;94019.55;;;;
2024/01/06 03:07:16;;;;;;;5.25;4.75;;;;;;;8.33;76.26758;94019.55;;;;
2024/01/06 03:08:17;;;;;;;5.25;4.75;;;;;;;8.33;76.26758;94019.55;;;;
2024/01/06 03:09:19;;;;;;;5.25;4.75;;;;;;;8.33;76.26758;94019.55;;;;
2024/01/06 03:10:19;;;;;;;6.8;4.849999;;;;;;;8.26;76.36133;94019.39;;;;
2024/01/06 03:11:20;;;;;;;6.8;4.849999;;;;;;;8.26;76.36133;94019.39;;;;
2024/01/06 03:12:20;;;;;;;6.8;4.849999;;;;;;;8.26;76.36133;94019.39;;;;
2024/01/06 03:13:21;;;;;;;6.8;4.849999;;;;;;;8.26;76.36133;94019.39;;;;
2024/01/06 03:14:21;;;;;;;6.8;4.849999;;;;;;;8.26;76.36133;94019.39;;;;
2024/01/06 03:15:21;;;;;;;6.8;4.849999;;;;;;;8.26;76.36133;94019.39;;;;
2024/01/06 03:16:22;;;;;;;6.8;4.849999;;;;;;;8.26;76.36133;94019.39;;;;
2024/01/06 03:17:23;;;;;;;6.8;4.849999;;;;;;;8.26;76.36133;94019.39;;;;
2024/01/06 03:18:23;;;;;;;6.8;4.849999;;;;;;;8.26;76.36133;94019.39;;;;
2024/01/06 03:19:26;;;;;;;6.8;4.849999;;;;;;;8.26;76.36133;94019.39;;;;
2024/01/06 03:20:26;;;;;;;6.8;4.849999;;;;;;;8.26;76.36133;94019.39;;;;
2024/01/06 03:21:27;;;;;;;6.8;4.849999;;;;;;;8.26;76.36133;94019.39;;;;
2024/01/06 03:22:27;;;;;;;6.8;4.849999;;;;;;;8.26;76.36133;94019.39;;;;
2024/01/06 03:23:28;;;;;;;6.8;4.849999;;;;;;;8.26;76.36133;94019.39;;;;
2024/01/06 03:24:28;;;;;;;6.8;4.849999;;;;;;;8.26;76.36133;94019.39;;;;
2024/01/06 03:25:29;;;;;;;6.8;4.849999;;;;;;;8.26;76.36133;94019.39;;;;
2024/01/06 03:26:29;;;;;;;6.8;4.849999;;;;;;;8.26;76.36133;94019.39;;;;
2024/01/06 03:27:30;;;;;;;6.8;4.849999;;;;;;;8.26;76.36133;94019.39;;;;
2024/01/06 03:28:30;;;;;;;6.8;4.849999;;;;;;;8.26;76.36133;94019.39;;;;
2024/01/06 03:29:31;;;;;;;6.8;4.849999;;;;;;;8.26;76.36133;94019.39;;;;
2024/01/06 03:30:31;;;;;;;6.8;4.849999;;;;;;;8.26;76.36133;94019.39;;;;
2024/01/06 03:31:32;;;;;;;4.1;3.1;;;;;;;8.16;76.54688;94035.82;;;;
2024/01/06 03:32:32;;;;;;;4.1;3.1;;;;;;;8.16;76.54688;94035.82;;;;
2024/01/06 03:33:33;;;;;;;4.1;3.1;;;;;;;8.16;76.54688;94035.82;;;;
2024/01/06 03:34:33;;;;;;;4.1;3.1;;;;;;;8.16;76.54688;94035.82;;;;
2024/01/06 03:35:34;;;;;;;4.1;3.1;;;;;;;8.16;76.54688;94035.82;;;;
2024/01/06 03:36:34;;;;;;;4.1;3.1;;;;;;;8.16;76.54688;94035.82;;;;
2024/01/06 03:37:35;;;;;;;4.1;3.1;;;;;;;8.16;76.54688;94035.82;;;;
2024/01/06 03:38:35;;;;;;;4.1;3.1;;;;;;;8.16;76.54688;94035.82;;;;
2024/01/06 03:39:36;;;;;;;4.1;3.1;;;;;;;8.16;76.54688;94035.82;;;;
2024/01/06 03:40:36;;;;;;;4.1;3.1;;;;;;;8.16;76.54688;94035.82;;;;
2024/01/06 03:41:36;;;;;;;4.1;3.1;;;;;;;8.16;76.54688;94035.82;;;;
2024/01/06 03:42:37;;;;;;;4.1;3.1;;;;;;;8.16;76.54688;94035.82;;;;
2024/01/06 03:43:37;;;;;;;4.1;3.1;;;;;;;8.16;76.54688;94035.82;;;;
2024/01/06 03:44:38;;;;;;;4.1;3.1;;;;;;;8.16;76.54688;94035.82;;;;
2024/01/06 03:45:38;;;;;;;4.1;3.1;;;;;;;8.16;76.54688;94035.82;;;;
2024/01/06 03:46:39;;;;;;;4.1;3.1;;;;;;;8.16;76.54688;94035.82;;;;
2024/01/06 03:47:39;;;;;;;4.1;3.1;;;;;;;8.16;76.54688;94035.82;;;;
2024/01/06 03:48:40;;;;;;;4.1;3.1;;;;;;;8.16;76.54688;94035.82;;;;
2024/01/06 03:49:40;;;;;;;4.1;3.1;;;;;;;8.16;76.54688;94035.82;;;;
2024/01/06 03:50:41;;;;;;;4.1;3.1;;;;;;;8.16;76.54688;94035.82;;;;
2024/01/06 03:51:41;;;;;;;4.1;3.1;;;;;;;8.16;76.54688;94035.82;;;;
2024/01/06 03:52:42;;;;;;;4.1;3.1;;;;;;;8.16;76.54688;94035.82;;;;
2024/01/06 03:53:43;;;;;;;2.5;2.299999;;;;;;;8.04;76.47363;94036.21;;;;
2024/01/06 03:54:43;;;;;;;2.5;2.299999;;;;;;;8.04;76.47363;94036.21;;;;
2024/01/06 03:55:44;;;;;;;2.5;2.299999;;;;;;;8.04;76.47363;94036.21;;;;
2024/01/06 03:56:44;;;;;;;2.5;2.299999;;;;;;;8.04;76.47363;94036.21;;;;
2024/01/06 03:57:45;;;;;;;2.5;2.299999;;;;;;;8.04;76.47363;94036.21;;;;
2024/01/06 03:58:45;;;;;;;2.5;2.299999;;;;;;;8.04;76.47363;94036.21;;;;
2024/01/06 03:59:46;;;;;;;2.5;2.299999;;;;;;;8.04;76.47363;94036.21;;;;
2024/01/06 04:00:47;;;;;;;2.5;2.299999;;;;;;;8.04;76.47363;94036.21;;;;
2024/01/06 04:01:47;;;;;;;2.5;2.299999;;;;;;;8.04;76.47363;94036.21;;;;
2024/01/06 04:02:48;;;;;;;2.5;2.299999;;;;;;;8.04;76.47363;94036.21;;;;
2024/01/06 04:03:48;;;;;;;2.6;2.4;;;;;;;7.94;76.59473;94038.21;;;;
2024/01/06 04:04:48;;;;;;;2.6;2.4;;;;;;;7.94;76.59473;94038.21;;;;
2024/01/06 04:05:49;;;;;;;2.6;2.4;;;;;;;7.94;76.59473;94038.21;;;;
2024/01/06 04:06:50;;;;;;;2.6;2.4;;;;;;;7.94;76.59473;94038.21;;;;
2024/01/06 04:07:50;;;;;;;2.6;2.4;;;;;;;7.94;76.59473;94038.21;;;;
2024/01/06 04:08:53;;;;;;;2.6;2.4;;;;;;;7.94;76.59473;94038.21;;;;
2024/01/06 04:09:53;;;;;;;2.6;2.4;;;;;;;7.94;76.59473;94038.21;;;;
2024/01/06 04:10:54;;;;;;;2.6;2.4;;;;;;;7.94;76.59473;94038.21;;;;
2024/01/06 04:11:54;;;;;;;2.6;2.4;;;;;;;7.94;76.59473;94038.21;;;;
2024/01/06 04:12:55;;;;;;;2.6;2.4;;;;;;;7.94;76.59473;94038.21;;;;
2024/01/06 04:13:56;;;;;;;2.6;2.4;;;;;;;7.94;76.59473;94038.21;;;;
2024/01/06 04:14:56;;;;;;;2.2;2;;;;;;;7.89;76.69141;94056.91;;;;
2024/01/06 04:15:57;;;;;;;2.2;2;;;;;;;7.89;76.69141;94056.91;;;;
2024/01/06 04:16:57;;;;;;;2.2;2;;;;;;;7.89;76.69141;94056.91;;;;
2024/01/06 04:17:58;;;;;;;2.2;2;;;;;;;7.89;76.69141;94056.91;;;;
2024/01/06 04:19:02;;;;;;;2.2;2;;;;;;;7.89;76.69141;94056.91;;;;
2024/01/06 04:20:04;;;;;;;2.2;2;;;;;;;7.89;76.69141;94056.91;;;;
2024/01/06 04:21:05;;;;;;;2.2;2;;;;;;;7.89;76.69141;94056.91;;;;
2024/01/06 04:22:06;;;;;;;2.2;2;;;;;;;7.89;76.69141;94056.91;;;;
2024/01/06 04:23:06;;;;;;;2.2;2;;;;;;;7.89;76.69141;94056.91;;;;
2024/01/06 04:24:07;;;;;;;2.2;2;;;;;;;7.89;76.69141;94056.91;;;;
2024/01/06 04:25:07;;;;;;;2.2;2;;;;;;;7.82;76.53027;94067.63;;;;
2024/01/06 04:26:08;;;;;;;2.2;2;;;;;;;7.82;76.53027;94067.63;;;;
2024/01/06 04:27:09;;;;;;;2.2;2;;;;;;;7.82;76.53027;94067.63;;;;
2024/01/06 04:28:10;;;;;;;2.2;2;;;;;;;7.82;76.53027;94067.63;;;;
2024/01/06 04:29:11;;;;;;;2.2;2;;;;;;;7.82;76.53027;94067.63;;;;
2024/01/06 04:30:12;;;;;;;2.2;2;;;;;;;7.82;76.53027;94067.63;;;;
2024/01/06 04:31:13;;;;;;;2.2;2;;;;;;;7.82;76.53027;94067.63;;;;
2024/01/06 04:32:13;;;;;;;2.2;2;;;;;;;7.82;76.53027;94067.63;;;;
2024/01/06 04:33:14;;;;;;;2.2;2;;;;;;;7.82;76.53027;94067.63;;;;
2024/01/06 04:34:14;;;;;;;2.2;2;;;;;;;7.82;76.53027;94067.63;;;;
2024/01/06 04:35:15;;;;;;;2.2;2;;;;;;;7.82;76.53027;94067.63;;;;
2024/01/06 04:36:16;;;;;;;1.8;1.7;;;;;;;7.73;76.58984;94064.5;;;;
2024/01/06 04:37:16;;;;;;;1.8;1.7;;;;;;;7.73;76.58984;94064.5;;;;
2024/01/06 04:38:17;;;;;;;1.8;1.7;;;;;;;7.73;76.58984;94064.5;;;;
2024/01/06 04:39:18;;;;;;;1.8;1.7;;;;;;;7.73;76.58984;94064.5;;;;
2024/01/06 04:40:18;;;;;;;1.8;1.7;;;;;;;7.73;76.58984;94064.5;;;;
2024/01/06 04:41:19;;;;;;;1.8;1.7;;;;;;;7.73;76.58984;94064.5;;;;
2024/01/06 04:42:22;;;;;;;1.8;1.7;;;;;;;7.73;76.58984;94064.5;;;;
2024/01/06 04:43:22;;;;;;;1.8;1.7;;;;;;;7.73;76.58984;94064.5;;;;
2024/01/06 04:44:23;;;;;;;1.8;1.7;;;;;;;7.73;76.58984;94064.5;;;;
2024/01/06 04:45:24;;;;;;;1.8;1.7;;;;;;;7.73;76.58984;94064.5;;;;
2024/01/06 04:46:24;;;;;;;1.8;1.7;;;;;;;7.73;76.58984;94064.5;;;;
2024/01/06 04:47:24;;;;;;;1.8;1.7;;;;;;;7.73;76.58984;94064.5;;;;
2024/01/06 04:48:25;;;;;;;1.8;1.7;;;;;;;7.73;76.58984;94064.5;;;;
2024/01/06 04:49:25;;;;;;;1.8;1.7;;;;;;;7.73;76.58984;94064.5;;;;
2024/01/06 04:50:26;;;;;;;1.8;1.7;;;;;;;7.73;76.58984;94064.5;;;;
2024/01/06 04:51:27;;;;;;;1.8;1.7;;;;;;;7.73;76.58984;94064.5;;;;
2024/01/06 04:52:27;;;;;;;1.8;1.7;;;;;;;7.73;76.58984;94064.5;;;;
2024/01/06 04:53:28;;;;;;;1.8;1.7;;;;;;;7.73;76.58984;94064.5;;;;
2024/01/06 04:54:28;;;;;;;1.8;1.7;;;;;;;7.73;76.58984;94064.5;;;;
2024/01/06 04:55:29;;;;;;;1.8;1.7;;;;;;;7.73;76.58984;94064.5;;;;
2024/01/06 04:56:29;;;;;;;1.8;1.7;;;;;;;7.73;76.58984;94064.5;;;;
2024/01/06 04:57:30;;;;;;;1.9;1.8;;;;;;;7.65;76.71387;94089.01;;;;
2024/01/06 04:58:30;;;;;;;1.9;1.8;;;;;;;7.65;76.71387;94089.01;;;;
2024/01/06 04:59:30;;;;;;;1.9;1.8;;;;;;;7.65;76.71387;94089.01;;;;
2024/01/06 05:00:31;;;;;;;1.9;1.8;;;;;;;7.65;76.71387;94089.01;;;;
2024/01/06 05:01:31;;;;;;;1.9;1.8;;;;;;;7.65;76.71387;94089.01;;;;
2024/01/06 05:02:32;;;;;;;1.9;1.8;;;;;;;7.65;76.71387;94089.01;;;;
2024/01/06 05:03:33;;;;;;;1.9;1.8;;;;;;;7.65;76.71387;94089.01;;;;
2024/01/06 05:04:34;;;;;;;1.9;1.8;;;;;;;7.65;76.71387;94089.01;;;;
2024/01/06 05:05:35;;;;;;;1.9;1.8;;;;;;;7.65;76.71387;94089.01;;;;
2024/01/06 05:06:35;;;;;;;1.9;1.8;;;;;;;7.65;76.71387;94089.01;;;;
2024/01/06 05:07:36;;;;;;;1.9;1.8;;;;;;;7.65;76.71387;94089.01;;;;
2024/01/06 05:08:38;;;;;;;1.9;1.8;;;;;;;7.65;76.71387;94089.01;;;;
2024/01/06 05:09:39;;;;;;;1.9;1.8;;;;;;;7.65;76.71387;94089.01;;;;
2024/01/06 05:10:39;;;;;;;1.9;1.8;;;;;;;7.65;76.71387;94089.01;;;;
2024/01/06 05:11:40;;;;;;;1.9;1.8;;;;;;;7.65;76.71387;94089.01;;;;
2024/01/06 05:12:43;;;;;;;1.9;1.8;;;;;;;7.65;76.71387;94089.01;;;;
2024/01/06 05:13:43;;;;;;;1.9;1.8;;;;;;;7.65;76.71387;94089.01;;;;
2024/01/06 05:14:44;;;;;;;1.9;1.8;;;;;;;7.65;76.71387;94089.01;;;;
2024/01/06 05:15:44;;;;;;;1.9;1.8;;;;;;;7.65;76.71387;94089.01;;;;
2024/01/06 05:16:45;;;;;;;1.9;1.8;;;;;;;7.65;76.71387;94089.01;;;;
2024/01/06 05:17:45;;;;;;;1.9;1.8;;;;;;;7.65;76.71387;94089.01;;;;
2024/01/06 05:18:46;;;;;;;1.9;1.8;;;;;;;7.65;76.71387;94089.01;;;;
2024/01/06 05:19:46;;;;;;;1.9;1.8;;;;;;;7.65;76.71387;94089.01;;;;
2024/01/06 05:20:47;;;;;;;1.9;1.8;;;;;;;7.65;76.71387;94089.01;;;;
2024/01/06 05:21:48;;;;;;;1.9;1.8;;;;;;;7.65;76.71387;94089.01;;;;
2024/01/06 05:22:49;;;;;;;1.9;1.8;;;;;;;7.65;76.71387;94089.01;;;;
2024/01/06 05:23:49;;;;;;;1.9;1.8;;;;;;;7.65;76.71387;94089.01;;;;
2024/01/06 05:24:53;;;;;;;1.9;1.8;;;;;;;7.65;76.71387;94089.01;;;;
2024/01/06 05:25:53;;;;;;;1.9;1.8;;;;;;;7.65;76.71387;94089.01;;;;
2024/01/06 05:26:54;;;;;;;1.9;1.8;;;;;;;7.65;76.71387;94089.01;;;;
2024/01/06 05:27:54;;;;;;;1.9;1.8;;;;;;;7.65;76.71387;94089.01;;;;
2024/01/06 05:28:54;;;;;;;1.9;1.8;;;;;;;7.65;76.71387;94089.01;;;;
2024/01/06 05:29:55;;;;;;;1.9;1.8;;;;;;;7.65;76.71387;94089.01;;;;
2024/01/06 05:30:55;;;;;;;1.9;1.8;;;;;;;7.65;76.71387;94089.01;;;;
2024/01/06 05:31:56;;;;;;;1.9;1.8;;;;;;;7.65;76.71387;94089.01;;;;
2024/01/06 05:32:56;;;;;;;1.9;1.8;;;;;;;7.65;76.71387;94089.01;;;;
2024/01/06 05:33:57;;;;;;;1.9;1.8;;;;;;;7.65;76.71387;94089.01;;;;
2024/01/06 05:34:57;;;;;;;1.9;1.8;;;;;;;7.65;76.71387;94089.01;;;;
2024/01/06 05:35:58;;;;;;;1.9;1.8;;;;;;;7.65;76.71387;94089.01;;;;
2024/01/06 05:36:58;;;;;;;1.9;1.8;;;;;;;7.65;76.71387;94089.01;;;;
2024/01/06 05:37:59;;;;;;;1.9;1.8;;;;;;;7.65;76.71387;94089.01;;;;
2024/01/06 05:39:00;;;;;;;1.9;1.8;;;;;;;7.65;76.71387;94089.01;;;;
2024/01/06 05:40:01;;;;;;;1.9;1.8;;;;;;;7.65;76.71387;94089.01;;;;
2024/01/06 05:41:02;;;;;;;1.9;1.8;;;;;;;7.38;77.0498;94134.15;;;;
2024/01/06 05:42:03;;;;;;;1.9;1.8;;;;;;;7.38;77.0498;94134.15;;;;
2024/01/06 05:43:03;;;;;;;1.9;1.8;;;;;;;7.38;77.0498;94134.15;;;;
2024/01/06 05:44:04;;;;;;;1.9;1.8;;;;;;;7.38;77.0498;94134.15;;;;
2024/01/06 05:45:05;;;;;;;1.9;1.8;;;;;;;7.38;77.0498;94134.15;;;;
2024/01/06 05:46:06;;;;;;;1.9;1.8;;;;;;;7.38;77.0498;94134.15;;;;
2024/01/06 05:47:08;;;;;;;1.9;1.8;;;;;;;7.38;77.0498;94134.15;;;;
2024/01/06 05:48:08;;;;;;;1.9;1.8;;;;;;;7.38;77.0498;94134.15;;;;